Time;durP1;ratioP1;P1;durP2;ratioP2;P2;SDS_P1;SDS_P2;PMS_P1;PMS_P2;Temp;Humidity;BMP_temperature;BMP_pressure;BME280_temperature;BME280_humidity;BME280_pressure;Samples;Min_cycle;Max_cycle;Signal;HPM_P1;HPM_P2
2023/03/04 00:01:41;;;;;;;63.28;28.13;;;;;;;;;;5033654;28;20079;-69
2023/03/04 00:04:07;;;;;;;54.83;28.63;;;;;;;;;;5033919;28;20029;-69
2023/03/04 00:06:34;;;;;;;55.28;29.00;;;;;;;;;;5033786;28;20025;-69
2023/03/04 00:09:02;;;;;;;54.53;30.65;;;;;;;;;;5032263;28;20036;-69
2023/03/04 00:11:29;;;;;;;52.70;30.05;;;;;;;;;;5033472;28;20017;-69
2023/03/04 00:13:55;;;;;;;54.35;32.80;;;;;;;;;;5033418;28;20047;-69
2023/03/04 00:16:21;;;;;;;51.28;27.67;;;;;;;;;;5033638;28;20400;-69
2023/03/04 00:18:48;;;;;;;68.53;38.92;;;;;;;;;;5033282;28;20025;-69
2023/03/04 00:21:14;;;;;;;55.20;31.33;;;;;;;;;;5033359;28;20022;-69
2023/03/04 00:23:42;;;;;;;58.25;31.00;;;;;;;;;;5033219;28;20022;-69
2023/03/04 00:26:08;;;;;;;71.95;40.40;;;;;;;;;;5032966;28;20025;-69
2023/03/04 00:28:35;;;;;;;52.00;29.73;;;;;;;;;;5033248;28;20038;-69
2023/03/04 00:31:01;;;;;;;48.42;29.25;;;;;;;;;;5033099;28;20027;-69
2023/03/04 00:33:27;;;;;;;56.30;31.10;;;;;;;;;;5033161;28;20029;-69
2023/03/04 00:35:54;;;;;;;53.05;28.38;;;;;;;;;;5033443;28;20033;-69
2023/03/04 00:38:20;;;;;;;54.28;29.67;;;;;;;;;;5033085;28;20025;-69
2023/03/04 00:40:46;;;;;;;54.20;28.98;;;;;;;;;;5032725;28;20094;-69
2023/03/04 00:43:13;;;;;;;55.55;29.75;;;;;;;;;;5032761;28;20047;-69
2023/03/04 00:45:39;;;;;;;79.28;39.80;;;;;;;;;;5032881;28;20024;-69
2023/03/04 00:48:06;;;;;;;59.15;32.25;;;;;;;;;;5032719;28;20397;-69
2023/03/04 00:50:32;;;;;;;59.65;32.22;;;;;;;;;;5033167;28;20017;-69
2023/03/04 00:52:58;;;;;;;55.15;30.10;;;;;;;;;;5032829;28;20397;-70
2023/03/04 00:55:25;;;;;;;55.72;29.83;;;;;;;;;;5032614;28;20083;-69
2023/03/04 00:57:51;;;;;;;56.70;29.38;;;;;;;;;;5032662;28;20029;-69
2023/03/04 01:00:17;;;;;;;54.95;30.05;;;;;;;;;;5031867;28;20037;-69
2023/03/04 01:02:44;;;;;;;55.40;30.40;;;;;;;;;;5032673;28;20425;-69
2023/03/04 01:05:10;;;;;;;63.13;30.70;;;;;;;;;;5032647;28;20029;-69
2023/03/04 01:07:37;;;;;;;61.67;31.25;;;;;;;;;;5032832;28;20028;-69
2023/03/04 01:10:05;;;;;;;60.03;31.00;;;;;;;;;;5032219;28;20470;-69
2023/03/04 01:12:31;;;;;;;50.35;28.88;;;;;;;;;;5032862;28;20032;-69
2023/03/04 01:14:57;;;;;;;57.60;29.98;;;;;;;;;;5032568;28;20425;-69
2023/03/04 01:17:23;;;;;;;60.15;30.20;;;;;;;;;;5032523;28;20390;-69
2023/03/04 01:19:50;;;;;;;58.83;31.42;;;;;;;;;;5032425;28;20026;-69
2023/03/04 01:22:17;;;;;;;57.40;29.55;;;;;;;;;;5032317;28;20021;-69
2023/03/04 01:24:44;;;;;;;60.47;30.63;;;;;;;;;;5032392;28;20028;-69
2023/03/04 01:27:11;;;;;;;60.35;32.95;;;;;;;;;;5032727;28;20021;-69
2023/03/04 01:29:37;;;;;;;54.50;28.77;;;;;;;;;;5032121;28;20036;-69
2023/03/04 01:32:03;;;;;;;66.00;33.70;;;;;;;;;;5032550;28;20025;-69
2023/03/04 01:34:30;;;;;;;64.55;33.30;;;;;;;;;;5032333;28;20033;-69
2023/03/04 01:36:56;;;;;;;55.92;29.63;;;;;;;;;;5032092;28;21079;-68
2023/03/04 01:39:22;;;;;;;54.65;29.52;;;;;;;;;;5032078;28;20029;-69
2023/03/04 01:41:49;;;;;;;56.47;30.35;;;;;;;;;;5032499;28;20029;-69
2023/03/04 01:44:15;;;;;;;56.47;28.75;;;;;;;;;;5030901;28;20061;-69
2023/03/04 01:46:43;;;;;;;54.47;28.00;;;;;;;;;;5032310;28;20029;-69
2023/03/04 01:49:12;;;;;;;56.90;28.08;;;;;;;;;;5032208;28;20056;-69
2023/03/04 01:51:38;;;;;;;54.13;28.65;;;;;;;;;;5031823;28;20029;-69
2023/03/04 01:54:04;;;;;;;54.90;28.25;;;;;;;;;;5032444;28;20048;-69
2023/03/04 01:56:35;;;;;;;56.83;30.52;;;;;;;;;;5032165;28;20017;-69
2023/03/04 01:59:14;;;;;;;51.45;28.75;;;;;;;;;;5032023;28;20021;-69
2023/03/04 02:01:43;;;;;;;67.22;34.05;;;;;;;;;;5032464;28;20029;-69
2023/03/04 02:04:09;;;;;;;57.88;30.20;;;;;;;;;;5030898;28;20506;-69
2023/03/04 02:06:37;;;;;;;57.22;29.48;;;;;;;;;;5031654;28;20032;-69
2023/03/04 02:09:04;;;;;;;55.67;28.45;;;;;;;;;;5031889;28;20048;-69
2023/03/04 02:11:30;;;;;;;53.85;28.65;;;;;;;;;;5032898;28;20482;-69
2023/03/04 02:13:57;;;;;;;54.45;28.85;;;;;;;;;;5036072;28;20037;-68
2023/03/04 02:16:24;;;;;;;51.53;28.23;;;;;;;;;;5034477;28;20466;-69
2023/03/04 02:18:51;;;;;;;56.08;28.33;;;;;;;;;;5035507;28;20036;-69
2023/03/04 02:21:24;;;;;;;59.50;28.83;;;;;;;;;;5035363;28;20025;-68
2023/03/04 02:23:50;;;;;;;57.13;28.45;;;;;;;;;;5035641;28;20026;-69
2023/03/04 02:26:29;;;;;;;54.95;28.85;;;;;;;;;;5035326;28;20040;-69
2023/03/04 02:28:57;;;;;;;54.42;28.67;;;;;;;;;;5035267;28;20044;-68
2023/03/04 02:31:23;;;;;;;55.65;28.52;;;;;;;;;;5035191;28;20490;-69
2023/03/04 02:33:50;;;;;;;56.25;28.90;;;;;;;;;;5035384;28;20022;-69
2023/03/04 02:36:16;;;;;;;53.20;27.35;;;;;;;;;;5035042;28;20035;-69
2023/03/04 02:38:43;;;;;;;57.75;28.42;;;;;;;;;;5034948;28;20033;-69
2023/03/04 02:41:12;;;;;;;52.95;28.02;;;;;;;;;;5035246;28;20462;-69
2023/03/04 02:43:38;;;;;;;51.30;26.85;;;;;;;;;;5035043;28;20414;-69
2023/03/04 02:46:04;;;;;;;51.72;28.10;;;;;;;;;;5035152;28;20035;-69
2023/03/04 02:48:31;;;;;;;52.63;26.45;;;;;;;;;;5035009;28;20033;-69
2023/03/04 02:50:57;;;;;;;57.45;30.13;;;;;;;;;;5034703;28;20040;-69
2023/03/04 02:53:27;;;;;;;52.85;28.77;;;;;;;;;;5035065;28;20025;-69
2023/03/04 02:55:53;;;;;;;53.13;27.40;;;;;;;;;;5034884;28;20033;-69
2023/03/04 02:58:20;;;;;;;56.22;28.05;;;;;;;;;;5033756;28;20017;-69
2023/03/04 03:00:46;;;;;;;55.00;29.02;;;;;;;;;;5035185;28;20034;-69
2023/03/04 03:03:12;;;;;;;53.58;27.40;;;;;;;;;;5034767;28;20024;-69
2023/03/04 03:05:39;;;;;;;53.88;28.33;;;;;;;;;;5034459;28;20033;-69
2023/03/04 03:08:06;;;;;;;55.85;27.30;;;;;;;;;;5034606;28;20021;-69
2023/03/04 03:10:32;;;;;;;55.30;28.80;;;;;;;;;;5034867;28;20036;-69
2023/03/04 03:12:59;;;;;;;56.38;28.48;;;;;;;;;;5034848;28;20030;-69
2023/03/04 03:15:25;;;;;;;54.72;27.10;;;;;;;;;;5034902;28;20067;-69
2023/03/04 03:17:52;;;;;;;55.92;29.38;;;;;;;;;;5035069;28;20028;-69
2023/03/04 03:20:18;;;;;;;57.38;28.05;;;;;;;;;;5032900;28;20184;-69
2023/03/04 03:22:44;;;;;;;57.95;30.38;;;;;;;;;;5033622;28;20028;-69
2023/03/04 03:25:12;;;;;;;54.17;28.42;;;;;;;;;;5034786;28;20022;-69
2023/03/04 03:27:38;;;;;;;58.28;30.63;;;;;;;;;;5034576;28;20026;-69
2023/03/04 03:30:05;;;;;;;63.25;32.50;;;;;;;;;;5034430;28;20478;-69
2023/03/04 03:32:31;;;;;;;63.40;32.40;;;;;;;;;;5034403;28;20026;-69
2023/03/04 03:34:58;;;;;;;59.03;30.70;;;;;;;;;;5033777;28;20478;-69
2023/03/04 03:37:24;;;;;;;57.08;28.75;;;;;;;;;;5034173;28;20035;-69
2023/03/04 03:39:51;;;;;;;57.42;29.33;;;;;;;;;;5034194;28;20029;-69
2023/03/04 03:42:17;;;;;;;58.47;28.83;;;;;;;;;;5033950;28;20474;-69
2023/03/04 03:44:43;;;;;;;52.72;27.92;;;;;;;;;;5033871;28;20048;-69
2023/03/04 03:47:09;;;;;;;55.28;30.10;;;;;;;;;;5034202;28;20489;-69
2023/03/04 03:49:36;;;;;;;59.53;31.58;;;;;;;;;;5033595;28;20075;-68
2023/03/04 03:52:02;;;;;;;60.78;30.25;;;;;;;;;;5033733;28;20017;-69
2023/03/04 03:54:28;;;;;;;54.55;30.23;;;;;;;;;;5034211;28;20025;-69
2023/03/04 03:56:55;;;;;;;55.47;29.95;;;;;;;;;;5033716;28;20022;-68
2023/03/04 03:59:22;;;;;;;56.47;29.20;;;;;;;;;;5033792;28;20029;-69
2023/03/04 04:01:49;;;;;;;63.20;30.70;;;;;;;;;;5032663;28;20025;-69
2023/03/04 04:04:15;;;;;;;59.10;29.60;;;;;;;;;;5033441;28;20032;-69
2023/03/04 04:06:41;;;;;;;64.05;31.10;;;;;;;;;;5033989;28;20025;-69
2023/03/04 04:09:08;;;;;;;56.65;29.05;;;;;;;;;;5033543;28;20042;-69
2023/03/04 04:11:34;;;;;;;57.88;30.00;;;;;;;;;;5033402;28;20020;-69
2023/03/04 04:14:00;;;;;;;58.60;29.90;;;;;;;;;;5033765;28;20055;-69
2023/03/04 04:16:27;;;;;;;63.17;31.38;;;;;;;;;;5033103;28;20028;-69
2023/03/04 04:18:53;;;;;;;55.47;28.48;;;;;;;;;;5033385;28;20029;-69
2023/03/04 04:21:19;;;;;;;61.38;31.77;;;;;;;;;;5033231;28;20018;-69
2023/03/04 04:23:45;;;;;;;58.90;29.92;;;;;;;;;;5033622;28;20033;-69
2023/03/04 04:26:12;;;;;;;54.60;27.98;;;;;;;;;;5033643;28;20374;-69
2023/03/04 04:28:38;;;;;;;52.92;28.60;;;;;;;;;;5033283;28;20025;-69
2023/03/04 04:31:08;;;;;;;64.25;31.30;;;;;;;;;;5032969;28;20475;-69
2023/03/04 04:33:35;;;;;;;59.67;29.88;;;;;;;;;;5033247;28;20029;-69
2023/03/04 04:36:03;;;;;;;51.70;27.20;;;;;;;;;;5033161;28;20028;-69
2023/03/04 04:38:30;;;;;;;56.55;30.38;;;;;;;;;;5032939;28;20021;-69
2023/03/04 04:40:57;;;;;;;63.10;32.08;;;;;;;;;;5032875;28;20543;-69
2023/03/04 04:43:24;;;;;;;55.45;30.08;;;;;;;;;;5032816;28;20037;-69
2023/03/04 04:45:50;;;;;;;56.28;30.25;;;;;;;;;;5031726;28;20082;-69
2023/03/04 04:48:17;;;;;;;58.88;31.80;;;;;;;;;;5032746;28;20486;-69
2023/03/04 04:50:43;;;;;;;56.53;31.00;;;;;;;;;;5033144;28;20035;-69
2023/03/04 04:53:12;;;;;;;56.55;30.60;;;;;;;;;;5032753;28;20021;-69
2023/03/04 04:55:38;;;;;;;56.75;29.95;;;;;;;;;;5033045;28;20025;-69
2023/03/04 04:58:06;;;;;;;56.28;28.50;;;;;;;;;;5032741;28;20025;-68
2023/03/04 05:00:32;;;;;;;57.17;28.92;;;;;;;;;;5032629;28;20033;-68
2023/03/04 05:02:59;;;;;;;57.38;29.73;;;;;;;;;;5032833;28;20509;-68
2023/03/04 05:05:25;;;;;;;54.63;27.95;;;;;;;;;;5032896;28;20034;-69
2023/03/04 05:07:51;;;;;;;54.67;27.60;;;;;;;;;;5032585;28;20528;-68
2023/03/04 05:10:18;;;;;;;57.75;28.75;;;;;;;;;;5032651;28;20034;-68
2023/03/04 05:12:44;;;;;;;60.75;29.35;;;;;;;;;;5032667;28;20029;-69
2023/03/04 05:15:10;;;;;;;58.35;28.52;;;;;;;;;;5032261;28;20394;-69
2023/03/04 05:17:37;;;;;;;56.53;28.98;;;;;;;;;;5032443;28;20548;-69
2023/03/04 05:20:05;;;;;;;56.47;29.33;;;;;;;;;;5032367;28;20051;-69
2023/03/04 05:22:31;;;;;;;62.92;30.17;;;;;;;;;;5032430;28;20028;-68
2023/03/04 05:24:58;;;;;;;54.83;28.92;;;;;;;;;;5032560;28;20049;-69
2023/03/04 05:27:24;;;;;;;59.85;29.10;;;;;;;;;;5032641;28;20037;-69
2023/03/04 05:29:50;;;;;;;57.28;28.80;;;;;;;;;;5032054;28;20504;-69
2023/03/04 05:32:17;;;;;;;54.35;28.35;;;;;;;;;;5032345;28;20036;-69
2023/03/04 05:34:43;;;;;;;56.47;27.67;;;;;;;;;;5032338;28;20489;-69
2023/03/04 05:37:09;;;;;;;51.22;26.77;;;;;;;;;;5032347;28;20026;-66
2023/03/04 05:39:36;;;;;;;50.90;26.50;;;;;;;;;;5032227;28;20033;-67
2023/03/04 05:42:02;;;;;;;60.38;29.67;;;;;;;;;;5032301;28;20029;-68
2023/03/04 05:44:28;;;;;;;60.33;29.58;;;;;;;;;;5031836;28;20045;-68
2023/03/04 05:46:54;;;;;;;58.40;27.83;;;;;;;;;;5034056;28;20037;-68
2023/03/04 05:49:21;;;;;;;55.05;28.00;;;;;;;;;;5036123;28;20039;-68
2023/03/04 05:51:47;;;;;;;54.63;28.77;;;;;;;;;;5036171;28;20033;-69
2023/03/04 05:54:13;;;;;;;60.15;29.42;;;;;;;;;;5035243;28;20052;-68
2023/03/04 05:56:40;;;;;;;56.08;28.65;;;;;;;;;;5036151;28;20025;-69
2023/03/04 05:59:06;;;;;;;53.03;27.75;;;;;;;;;;5035833;28;20031;-69
2023/03/04 06:01:33;;;;;;;57.60;29.30;;;;;;;;;;5036015;28;20368;-68
2023/03/04 06:03:59;;;;;;;58.05;29.45;;;;;;;;;;5036004;28;20293;-68
2023/03/04 06:06:25;;;;;;;62.33;29.77;;;;;;;;;;5036200;28;20033;-68
2023/03/04 06:08:51;;;;;;;58.80;29.45;;;;;;;;;;5035706;28;20048;-69
2023/03/04 06:11:18;;;;;;;59.63;28.70;;;;;;;;;;5035812;28;20024;-69
2023/03/04 06:13:44;;;;;;;57.85;29.92;;;;;;;;;;5035360;28;20513;-69
2023/03/04 06:16:11;;;;;;;58.78;28.92;;;;;;;;;;5035756;28;20018;-69
2023/03/04 06:18:37;;;;;;;61.55;31.88;;;;;;;;;;5035776;28;20034;-68
2023/03/04 06:21:04;;;;;;;59.45;29.70;;;;;;;;;;5035453;28;20017;-69
2023/03/04 06:23:31;;;;;;;59.38;30.17;;;;;;;;;;5035512;28;20033;-69
2023/03/04 06:25:58;;;;;;;63.75;31.63;;;;;;;;;;5035562;28;20029;-69
2023/03/04 06:28:25;;;;;;;65.10;31.70;;;;;;;;;;5035098;28;20039;-69
2023/03/04 06:30:52;;;;;;;63.72;29.95;;;;;;;;;;5035367;28;20059;-69
2023/03/04 06:33:18;;;;;;;62.10;30.48;;;;;;;;;;5035449;28;20035;-69
2023/03/04 06:35:44;;;;;;;64.10;29.73;;;;;;;;;;5035402;28;20522;-69
2023/03/04 06:38:11;;;;;;;61.08;31.80;;;;;;;;;;5035244;28;20018;-68
2023/03/04 06:40:38;;;;;;;59.83;32.00;;;;;;;;;;5035584;28;20036;-69
2023/03/04 06:43:04;;;;;;;62.13;31.60;;;;;;;;;;5035054;28;20048;-69
2023/03/04 06:45:30;;;;;;;63.50;32.75;;;;;;;;;;5035093;28;20021;-69
2023/03/04 06:47:57;;;;;;;60.47;31.13;;;;;;;;;;5035082;28;20029;-69
2023/03/04 06:50:23;;;;;;;62.20;31.13;;;;;;;;;;5035007;28;20040;-69
2023/03/04 06:52:49;;;;;;;58.55;31.05;;;;;;;;;;5035125;28;20028;-69
2023/03/04 06:55:16;;;;;;;55.97;30.48;;;;;;;;;;5034852;28;20033;-69
2023/03/04 06:57:42;;;;;;;58.72;30.58;;;;;;;;;;5033485;28;20039;-68
2023/03/04 07:00:09;;;;;;;65.00;30.63;;;;;;;;;;5034752;28;20026;-69
2023/03/04 07:02:35;;;;;;;59.97;31.77;;;;;;;;;;5034905;28;20039;-69
2023/03/04 07:05:01;;;;;;;78.07;37.38;;;;;;;;;;5035085;28;20010;-69
2023/03/04 07:07:28;;;;;;;79.30;39.70;;;;;;;;;;5034899;28;20038;-69
2023/03/04 07:09:54;;;;;;;69.57;36.42;;;;;;;;;;5034594;28;20393;-69
2023/03/04 07:12:20;;;;;;;67.80;37.03;;;;;;;;;;5034412;28;20026;-69
2023/03/04 07:14:46;;;;;;;76.63;48.47;;;;;;;;;;5034896;28;20025;-69
2023/03/04 07:17:13;;;;;;;57.40;34.10;;;;;;;;;;5034516;28;20029;-69
2023/03/04 07:19:40;;;;;;;51.17;27.58;;;;;;;;;;5033310;28;20032;-69
2023/03/04 07:22:07;;;;;;;55.63;29.98;;;;;;;;;;5034600;28;20381;-69
2023/03/04 07:24:33;;;;;;;54.63;28.90;;;;;;;;;;5034823;28;20055;-69
2023/03/04 07:26:59;;;;;;;53.17;28.55;;;;;;;;;;5034024;28;20022;-69
2023/03/04 07:29:26;;;;;;;52.33;28.90;;;;;;;;;;5034391;28;20036;-69
2023/03/04 07:31:52;;;;;;;55.28;27.95;;;;;;;;;;5034479;28;20022;-69
2023/03/04 07:34:18;;;;;;;53.17;28.45;;;;;;;;;;5034233;28;20037;-69
2023/03/04 07:36:45;;;;;;;54.60;31.30;;;;;;;;;;5034290;28;20021;-69
2023/03/04 07:39:12;;;;;;;59.20;32.25;;;;;;;;;;5034257;28;20021;-69
2023/03/04 07:41:39;;;;;;;55.55;30.10;;;;;;;;;;5033610;28;20028;-68
2023/03/04 07:44:06;;;;;;;52.35;30.33;;;;;;;;;;5034288;28;20051;-69
2023/03/04 07:46:32;;;;;;;52.00;30.10;;;;;;;;;;5034099;28;20528;-69
2023/03/04 07:48:58;;;;;;;55.78;31.05;;;;;;;;;;5034007;28;20033;-69
2023/03/04 07:51:26;;;;;;;53.60;29.90;;;;;;;;;;5034021;28;20037;-69
2023/03/04 07:53:53;;;;;;;55.13;29.98;;;;;;;;;;5034261;28;20042;-69
2023/03/04 07:56:21;;;;;;;49.28;27.90;;;;;;;;;;5033911;28;20032;-69
2023/03/04 07:58:48;;;;;;;49.30;29.35;;;;;;;;;;5033596;28;20029;-69
2023/03/04 08:01:16;;;;;;;51.53;29.17;;;;;;;;;;5033784;28;20486;-69
2023/03/04 08:03:42;;;;;;;46.83;28.60;;;;;;;;;;5033880;28;20037;-69
2023/03/04 08:06:10;;;;;;;45.65;28.27;;;;;;;;;;5033960;28;20033;-68
2023/03/04 08:08:36;;;;;;;45.53;28.08;;;;;;;;;;5033223;28;20025;-69
2023/03/04 08:11:04;;;;;;;45.60;27.00;;;;;;;;;;5033252;28;20383;-69
2023/03/04 08:13:31;;;;;;;44.50;25.92;;;;;;;;;;5033362;28;20028;-69
2023/03/04 08:15:57;;;;;;;46.88;29.00;;;;;;;;;;5033458;28;20025;-69
2023/03/04 08:18:23;;;;;;;40.95;27.45;;;;;;;;;;5033386;28;20024;-70
2023/03/04 08:20:51;;;;;;;40.72;26.92;;;;;;;;;;5033685;28;20036;-69
2023/03/04 08:23:17;;;;;;;43.08;28.38;;;;;;;;;;5032986;28;20025;-67
2023/03/04 08:25:44;;;;;;;39.50;27.73;;;;;;;;;;5033245;28;20032;-69
2023/03/04 08:28:12;;;;;;;41.00;27.77;;;;;;;;;;5033620;28;20044;-69
2023/03/04 08:30:39;;;;;;;38.38;27.52;;;;;;;;;;5033062;28;20034;-69
2023/03/04 08:33:05;;;;;;;39.13;27.63;;;;;;;;;;5033114;28;20086;-69
2023/03/04 08:35:32;;;;;;;35.90;26.73;;;;;;;;;;5033370;28;20036;-69
2023/03/04 08:37:58;;;;;;;41.20;29.02;;;;;;;;;;5032542;28;20024;-69
2023/03/04 08:40:25;;;;;;;37.20;26.65;;;;;;;;;;5032874;28;20018;-69
2023/03/04 08:42:52;;;;;;;36.25;26.25;;;;;;;;;;5032723;28;20025;-69
2023/03/04 08:45:18;;;;;;;40.05;29.02;;;;;;;;;;5031559;28;20041;-69
2023/03/04 08:47:45;;;;;;;37.97;27.58;;;;;;;;;;5032989;28;20025;-69
2023/03/04 08:50:12;;;;;;;38.72;28.05;;;;;;;;;;5032796;28;20061;-69
2023/03/04 08:52:38;;;;;;;37.92;27.92;;;;;;;;;;5032515;28;20030;-69
2023/03/04 08:55:05;;;;;;;44.67;30.33;;;;;;;;;;5032838;28;20059;-69
2023/03/04 08:57:31;;;;;;;36.88;28.60;;;;;;;;;;5032728;28;20433;-69
2023/03/04 08:59:58;;;;;;;39.75;29.00;;;;;;;;;;5032907;28;20037;-69
2023/03/04 09:02:24;;;;;;;35.50;28.60;;;;;;;;;;5032639;28;20031;-67
2023/03/04 09:04:50;;;;;;;38.72;29.23;;;;;;;;;;5032620;28;20024;-69
2023/03/04 09:07:17;;;;;;;39.30;29.35;;;;;;;;;;5032351;28;20402;-69
2023/03/04 09:09:43;;;;;;;37.47;29.38;;;;;;;;;;5032565;28;20458;-67
2023/03/04 09:12:09;;;;;;;40.08;29.92;;;;;;;;;;5032765;28;20035;-69
2023/03/04 09:14:36;;;;;;;41.33;30.77;;;;;;;;;;5032816;28;20474;-69
2023/03/04 09:17:03;;;;;;;35.28;28.77;;;;;;;;;;5032373;28;20480;-69
2023/03/04 09:19:29;;;;;;;37.08;29.35;;;;;;;;;;5032795;28;20017;-68
2023/03/04 09:21:58;;;;;;;40.03;30.27;;;;;;;;;;5031318;28;20443;-68
2023/03/04 09:24:25;;;;;;;39.00;30.23;;;;;;;;;;5032526;28;20024;-69
2023/03/04 09:26:52;;;;;;;38.30;29.92;;;;;;;;;;5032887;28;20052;-69
2023/03/04 09:29:18;;;;;;;36.83;28.58;;;;;;;;;;5032342;28;20046;-68
2023/03/04 09:31:44;;;;;;;40.88;30.15;;;;;;;;;;5032441;28;20031;-69
2023/03/04 09:34:11;;;;;;;38.25;28.58;;;;;;;;;;5032335;28;20051;-69
2023/03/04 09:36:37;;;;;;;34.88;28.52;;;;;;;;;;5031997;28;20029;-69
2023/03/04 09:39:04;;;;;;;35.45;28.20;;;;;;;;;;5032464;28;20032;-68
2023/03/04 09:41:43;;;;;;;35.50;29.27;;;;;;;;;;5032372;28;20021;-69
2023/03/04 09:44:14;;;;;;;36.45;28.35;;;;;;;;;;5032244;28;20038;-68
2023/03/04 09:46:41;;;;;;;35.70;28.52;;;;;;;;;;5032314;28;20029;-69
2023/03/04 09:49:10;;;;;;;35.80;29.45;;;;;;;;;;5032370;28;20034;-69
2023/03/04 09:51:39;;;;;;;37.30;28.38;;;;;;;;;;5031989;28;20386;-68
2023/03/04 09:54:24;;;;;;;35.28;28.30;;;;;;;;;;5032173;28;20035;-68
2023/03/04 09:56:51;;;;;;;35.88;28.75;;;;;;;;;;5032576;28;20048;-68
2023/03/04 09:59:25;;;;;;;36.45;28.55;;;;;;;;;;5032403;28;20075;-69
2023/03/04 10:01:54;;;;;;;48.13;33.28;;;;;;;;;;5032090;28;20367;-68
2023/03/04 10:04:20;;;;;;;37.85;28.88;;;;;;;;;;5032182;28;20029;-69
2023/03/04 10:06:53;;;;;;;34.30;28.40;;;;;;;;;;5032019;28;20032;-69
2023/03/04 10:09:29;;;;;;;41.90;29.20;;;;;;;;;;5032173;28;20038;-68
2023/03/04 10:12:07;;;;;;;59.72;40.10;;;;;;;;;;5032307;28;20033;-69
2023/03/04 10:14:33;;;;;;;41.17;31.08;;;;;;;;;;5032081;28;20021;-68
2023/03/04 10:17:04;;;;;;;35.67;29.02;;;;;;;;;;5032069;28;20051;-69
2023/03/04 10:19:30;;;;;;;;;;;;;;;;;;5032090;28;20493;-69
2023/03/04 10:21:57;;;;;;;38.85;29.13;;;;;;;;;;5031692;28;19912;-68
2023/03/04 10:24:27;;;;;;;37.83;27.67;;;;;;;;;;5031948;28;20032;-69
2023/03/04 10:27:04;;;;;;;35.15;27.80;;;;;;;;;;5031903;28;20021;-69
2023/03/04 10:29:31;;;;;;;38.08;27.67;;;;;;;;;;5031849;28;20034;-69
2023/03/04 10:31:57;;;;;;;36.55;28.55;;;;;;;;;;5031898;28;20026;-69
2023/03/04 10:34:24;;;;;;;35.72;27.45;;;;;;;;;;5035004;28;20022;-69
2023/03/04 10:36:55;;;;;;;33.80;27.48;;;;;;;;;;5035414;28;20482;-69
2023/03/04 10:39:27;;;;;;;33.95;27.60;;;;;;;;;;5035259;28;20024;-69
2023/03/04 10:42:01;;;;;;;35.13;27.67;;;;;;;;;;5035274;28;20524;-69
2023/03/04 10:44:28;;;;;;;33.40;26.98;;;;;;;;;;5035140;28;20034;-69
2023/03/04 10:46:55;;;;;;;34.90;26.48;;;;;;;;;;5035214;28;20037;-69
2023/03/04 10:49:23;;;;;;;34.78;26.80;;;;;;;;;;5034758;28;20039;-67
2023/03/04 10:52:08;;;;;;;37.13;26.75;;;;;;;;;;5035539;28;20036;-68
2023/03/04 10:54:48;;;;;;;32.17;26.13;;;;;;;;;;5035096;28;20025;-69
2023/03/04 10:57:28;;;;;;;35.85;26.50;;;;;;;;;;5034910;28;20482;-68
2023/03/04 10:59:56;;;;;;;32.25;25.15;;;;;;;;;;5034861;28;20024;-68
2023/03/04 11:02:28;;;;;;;34.17;25.30;;;;;;;;;;5035000;28;20033;-69
2023/03/04 11:04:57;;;;;;;35.53;26.77;;;;;;;;;;5035063;28;20498;-68
2023/03/04 11:07:24;;;;;;;33.15;25.75;;;;;;;;;;5035052;28;20035;-69
2023/03/04 11:09:51;;;;;;;32.45;25.15;;;;;;;;;;5034663;28;20405;-69
2023/03/04 11:12:19;;;;;;;31.67;25.15;;;;;;;;;;5034700;28;20014;-69
2023/03/04 11:14:48;;;;;;;29.52;24.17;;;;;;;;;;5034574;28;20030;-69
2023/03/04 11:17:19;;;;;;;33.78;25.45;;;;;;;;;;5034277;28;20024;-69
2023/03/04 11:19:47;;;;;;;35.75;25.75;;;;;;;;;;5034911;28;20086;-69
2023/03/04 11:22:17;;;;;;;30.85;24.35;;;;;;;;;;5034527;28;20385;-68
2023/03/04 11:24:44;;;;;;;32.47;25.83;;;;;;;;;;5034467;28;20030;-69
2023/03/04 11:27:39;;;;;;;32.95;25.40;;;;;;;;;;5034357;28;20033;-69
2023/03/04 11:30:09;;;;;;;35.97;26.02;;;;;;;;;;5032124;28;20045;-69
2023/03/04 11:32:40;;;;;;;36.17;25.58;;;;;;;;;;5032065;28;20030;-69
2023/03/04 11:35:14;;;;;;;29.90;23.13;;;;;;;;;;5032107;28;20040;-69
2023/03/04 11:37:43;;;;;;;30.35;22.35;;;;;;;;;;5032364;28;20017;-69
2023/03/04 11:40:12;;;;;;;28.85;22.35;;;;;;;;;;5032079;28;20512;-69
2023/03/04 11:42:43;;;;;;;29.42;23.17;;;;;;;;;;5031737;28;20036;-68
2023/03/04 11:45:15;;;;;;;29.08;23.35;;;;;;;;;;5031271;28;20052;-68
2023/03/04 11:47:47;;;;;;;33.60;23.73;;;;;;;;;;5031420;28;20037;-69
2023/03/04 11:50:16;;;;;;;27.98;21.38;;;;;;;;;;5032024;28;20042;-69
2023/03/04 11:52:50;;;;;;;28.90;22.25;;;;;;;;;;5031697;28;20124;-69
2023/03/04 11:55:31;;;;;;;30.25;22.70;;;;;;;;;;5031777;28;20104;-69
2023/03/04 11:58:07;;;;;;;29.35;23.13;;;;;;;;;;5031534;28;20167;-69
2023/03/04 12:00:45;;;;;;;27.23;22.30;;;;;;;;;;5031476;28;20044;-69
2023/03/04 12:03:14;;;;;;;30.35;23.83;;;;;;;;;;5031952;28;20033;-69
2023/03/04 12:05:40;;;;;;;26.15;21.73;;;;;;;;;;5031991;28;20030;-69
2023/03/04 12:08:16;;;;;;;27.85;21.98;;;;;;;;;;5033616;28;20034;-69
2023/03/04 12:11:05;;;;;;;27.27;22.63;;;;;;;;;;5033550;28;20037;-69
2023/03/04 12:13:41;;;;;;;28.83;23.20;;;;;;;;;;5033293;28;20037;-69
2023/03/04 12:16:25;;;;;;;31.10;21.45;;;;;;;;;;5033153;28;20025;-69
2023/03/04 12:18:54;;;;;;;25.88;21.38;;;;;;;;;;5033505;28;20025;-69
2023/03/04 12:21:20;;;;;;;26.80;22.30;;;;;;;;;;5033524;28;20512;-69
2023/03/04 12:23:57;;;;;;;29.98;22.45;;;;;;;;;;5033297;28;20025;-67
2023/03/04 12:26:33;;;;;;;27.17;21.17;;;;;;;;;;5033395;28;20024;-69
2023/03/04 12:28:59;;;;;;;26.02;20.20;;;;;;;;;;5033488;28;20033;-69
2023/03/04 12:31:28;;;;;;;23.58;18.13;;;;;;;;;;5032835;28;20017;-68
2023/03/04 12:34:01;;;;;;;21.60;17.40;;;;;;;;;;5033147;28;20025;-69
2023/03/04 12:36:47;;;;;;;23.83;16.90;;;;;;;;;;5033155;28;20490;-69
2023/03/04 12:39:33;;;;;;;23.48;17.95;;;;;;;;;;5032966;28;20037;-69
2023/03/04 12:42:02;;;;;;;28.08;18.63;;;;;;;;;;5033119;28;20025;-69
2023/03/04 12:44:33;;;;;;;21.88;18.10;;;;;;;;;;5032702;28;20037;-69
2023/03/04 12:46:59;;;;;;;26.83;18.08;;;;;;;;;;5033158;28;20048;-69
2023/03/04 12:49:34;;;;;;;23.17;16.90;;;;;;;;;;5015140;28;20067;-69
2023/03/04 12:52:19;;;;;;;21.95;15.73;;;;;;;;;;5032744;28;20019;-69
2023/03/04 12:54:47;;;;;;;23.38;16.20;;;;;;;;;;5032843;28;20029;-69
2023/03/04 12:57:13;;;;;;;22.48;16.48;;;;;;;;;;5032851;28;20504;-69
2023/03/04 12:59:44;;;;;;;25.35;16.65;;;;;;;;;;5032499;28;20091;-69
2023/03/04 13:02:23;;;;;;;22.75;16.38;;;;;;;;;;5032747;28;20032;-69
2023/03/04 13:05:07;;;;;;;20.98;16.02;;;;;;;;;;5031655;28;20030;-69
2023/03/04 13:07:42;;;;;;;18.42;15.05;;;;;;;;;;5032747;28;20029;-69
2023/03/04 13:10:13;;;;;;;22.25;14.77;;;;;;;;;;5032583;28;20033;-69
2023/03/04 13:13:06;;;;;;;17.70;14.75;;;;;;;;;;5032349;28;20021;-69
2023/03/04 13:15:38;;;;;;;23.17;15.80;;;;;;;;;;5032598;28;20044;-69
2023/03/04 13:18:23;;;;;;;18.48;14.82;;;;;;;;;;5032553;28;20018;-69
2023/03/04 13:21:05;;;;;;;19.05;15.07;;;;;;;;;;5033088;28;20028;-69
2023/03/04 13:23:32;;;;;;;19.20;14.30;;;;;;;;;;5032752;28;20037;-69
2023/03/04 13:25:58;;;;;;;18.83;15.68;;;;;;;;;;5032629;28;20028;-69
2023/03/04 13:28:27;;;;;;;19.40;15.18;;;;;;;;;;5032565;28;20034;-69
2023/03/04 13:30:58;;;;;;;17.48;14.88;;;;;;;;;;5032260;28;20063;-69
2023/03/04 13:33:24;;;;;;;;;;;;;;;;;;5032898;28;20014;-69
2023/03/04 13:36:04;;;;;;;21.30;16.08;;;;;;;;;;5032460;28;19920;-69
2023/03/04 13:38:30;;;;;;;22.95;16.42;;;;;;;;;;5032303;28;20454;-69
2023/03/04 13:41:16;;;;;;;21.65;15.30;;;;;;;;;;5032679;28;20029;-69
2023/03/04 13:43:44;;;;;;;21.00;15.85;;;;;;;;;;5032036;28;20038;-68
2023/03/04 13:46:17;;;;;;;22.45;15.63;;;;;;;;;;5032320;28;20448;-68
2023/03/04 13:48:49;;;;;;;23.65;15.45;;;;;;;;;;5031987;28;20034;-68
2023/03/04 13:51:23;;;;;;;20.17;15.10;;;;;;;;;;5032316;28;20037;-69
2023/03/04 13:53:58;;;;;;;24.20;16.88;;;;;;;;;;5031261;28;20075;-69
2023/03/04 13:56:30;;;;;;;22.63;15.75;;;;;;;;;;5031881;28;20488;-69
2023/03/04 13:59:08;;;;;;;19.17;15.45;;;;;;;;;;5032444;28;20037;-69
2023/03/04 14:01:41;;;;;;;23.35;16.42;;;;;;;;;;5032281;28;20486;-69
2023/03/04 14:04:17;;;;;;;20.05;15.80;;;;;;;;;;5032202;28;20032;-69
2023/03/04 14:06:48;;;;;;;22.17;16.55;;;;;;;;;;5032392;28;20038;-69
2023/03/04 14:09:15;;;;;;;25.80;16.42;;;;;;;;;;5036062;28;20032;-69
2023/03/04 14:11:42;;;;;;;23.80;17.27;;;;;;;;;;5035521;28;20040;-68
2023/03/04 14:14:12;;;;;;;28.65;17.55;;;;;;;;;;5035846;28;20022;-69
2023/03/04 14:16:40;;;;;;;22.52;17.60;;;;;;;;;;5035605;28;20486;-69
2023/03/04 14:19:13;;;;;;;25.08;17.80;;;;;;;;;;5036144;28;20028;-69
2023/03/04 14:21:43;;;;;;;25.98;17.00;;;;;;;;;;5035978;28;20044;-69
2023/03/04 14:24:16;;;;;;;22.25;16.70;;;;;;;;;;5034565;28;20024;-68
2023/03/04 14:26:43;;;;;;;23.10;16.45;;;;;;;;;;5035258;28;20026;-69